createdAt,value
2023-04-03T00:02:11.836Z,3.58
2023-04-03T00:04:59.642Z,3.53
2023-04-03T00:07:47.568Z,3.55
2023-04-03T00:10:35.858Z,3.56
2023-04-03T00:13:24.486Z,3.55
2023-04-03T00:16:13.428Z,3.51
2023-04-03T00:19:03.533Z,3.49
2023-04-03T00:21:51.581Z,3.49
2023-04-03T00:24:39.425Z,3.47
2023-04-03T00:27:27.502Z,3.45
2023-04-03T00:30:18.011Z,3.42
2023-04-03T00:33:06.073Z,3.40
2023-04-03T00:35:55.750Z,3.38
2023-04-03T00:38:43.800Z,3.38
2023-04-03T00:41:32.901Z,3.35
2023-04-03T00:44:45.369Z,3.34
2023-04-03T00:47:33.870Z,3.31
2023-04-03T00:50:22.023Z,3.29
2023-04-03T00:53:15.054Z,3.25
2023-04-03T00:56:03.572Z,3.24
2023-04-03T00:58:54.620Z,3.22
2023-04-03T01:01:42.605Z,3.21
2023-04-03T01:04:31.808Z,3.15
2023-04-03T01:07:23.660Z,3.15
2023-04-03T01:10:16.917Z,3.11
2023-04-03T01:13:21.536Z,3.08
2023-04-03T01:16:10.550Z,3.04
2023-04-03T01:18:58.340Z,3.02
2023-04-03T01:22:08.480Z,2.99
2023-04-03T01:24:56.637Z,2.99
2023-04-03T01:27:45.948Z,2.96
2023-04-03T01:30:37.716Z,2.94
2023-04-03T01:33:27.078Z,2.92
2023-04-03T01:36:18.274Z,2.86
2023-04-03T01:39:06.301Z,2.82
2023-04-03T01:41:54.520Z,2.81
2023-04-03T01:44:42.257Z,2.79
2023-04-03T01:47:30.372Z,2.76
2023-04-03T01:50:19.757Z,2.71
2023-04-03T01:53:07.795Z,2.69
2023-04-03T01:55:55.883Z,2.65
2023-04-03T01:58:43.682Z,2.62
2023-04-03T02:01:32.876Z,2.57
2023-04-03T02:04:20.671Z,2.55
2023-04-03T02:07:09.787Z,2.49
2023-04-03T02:09:57.580Z,2.45
2023-04-03T02:12:46.285Z,2.42
2023-04-03T02:15:34.318Z,2.40
2023-04-03T02:18:23.272Z,2.35
2023-04-03T02:21:11.694Z,2.35
2023-04-03T02:24:01.031Z,2.33
2023-04-03T02:26:49.095Z,2.28
2023-04-03T02:29:40.907Z,2.27
2023-04-03T02:32:32.427Z,2.23
2023-04-03T02:35:20.572Z,2.18
2023-04-03T02:38:08.779Z,2.14
2023-04-03T02:41:03.118Z,2.10
2023-04-03T02:43:50.863Z,2.10
2023-04-03T02:46:38.861Z,2.11
2023-04-03T02:49:26.925Z,2.10
2023-04-03T02:52:15.024Z,2.04
2023-04-03T02:55:06.471Z,2.03
2023-04-03T02:57:56.314Z,2.01
2023-04-03T03:00:45.299Z,1.98
2023-04-03T03:03:36.343Z,1.98
2023-04-03T03:06:24.395Z,1.99
2023-04-03T03:09:13.497Z,1.96
2023-04-03T03:12:02.320Z,1.98
2023-04-03T03:14:52.510Z,2.00
2023-04-03T03:17:41.614Z,2.00
2023-04-03T03:20:32.609Z,2.01
2023-04-03T03:23:22.532Z,2.00
2023-04-03T03:26:17.394Z,2.01
2023-04-03T03:29:06.475Z,2.02
2023-04-03T03:31:56.170Z,2.03
2023-04-03T03:34:45.008Z,2.04
2023-04-03T03:37:32.836Z,2.04
2023-04-03T03:40:20.746Z,2.03
2023-04-03T03:43:08.715Z,2.04
2023-04-03T03:45:57.009Z,2.03
2023-04-03T03:48:47.094Z,2.05
2023-04-03T03:51:37.342Z,2.05
2023-04-03T03:54:27.584Z,2.06
2023-04-03T03:57:16.808Z,2.05
2023-04-03T04:00:05.286Z,2.07
2023-04-03T04:02:53.457Z,2.07
2023-04-03T04:05:43.208Z,2.07
2023-04-03T04:08:34.389Z,2.06
2023-04-03T04:11:23.338Z,2.06
2023-04-03T04:14:13.458Z,2.05
2023-04-03T04:17:03.398Z,2.05
2023-04-03T04:19:51.348Z,2.05
2023-04-03T04:22:40.949Z,2.05
2023-04-03T04:25:28.710Z,2.06
2023-04-03T04:28:17.106Z,2.05
2023-04-03T04:31:05.046Z,2.04
2023-04-03T04:33:55.353Z,2.01
2023-04-03T04:36:43.714Z,2.00
2023-04-03T04:39:33.030Z,1.97
2023-04-03T04:42:23.748Z,1.96
2023-04-03T04:45:12.339Z,1.95
2023-04-03T04:48:00.183Z,1.93
2023-04-03T04:50:48.080Z,1.91
2023-04-03T04:53:36.349Z,1.87
2023-04-03T04:56:26.419Z,1.86
2023-04-03T04:59:14.568Z,1.80
2023-04-03T05:02:02.816Z,1.78
2023-04-03T05:04:52.973Z,1.73
2023-04-03T05:07:41.378Z,1.70
2023-04-03T05:10:29.477Z,1.65
2023-04-03T05:13:18.853Z,1.60
2023-04-03T05:16:07.262Z,1.57
2023-04-03T05:18:55.154Z,1.52
2023-04-03T05:21:43.189Z,1.47
2023-04-03T05:24:31.237Z,1.44
2023-04-03T05:27:19.333Z,1.43
2023-04-03T05:30:10.625Z,1.41
2023-04-03T05:32:58.458Z,1.42
2023-04-03T05:35:47.027Z,1.41
2023-04-03T05:38:35.274Z,1.41
2023-04-03T05:41:23.475Z,1.40
2023-04-03T05:44:11.513Z,1.42
2023-04-03T05:47:00.921Z,1.44
2023-04-03T05:49:49.069Z,1.46
2023-04-03T05:52:40.716Z,1.49
2023-04-03T05:55:28.541Z,1.52
2023-04-03T05:58:16.703Z,1.55
2023-04-03T06:01:04.827Z,1.59
2023-04-03T06:03:54.149Z,1.66
2023-04-03T06:06:52.449Z,1.71
2023-04-03T06:09:40.941Z,1.78
2023-04-03T06:12:29.938Z,1.82
2023-04-03T06:15:18.378Z,1.87
2023-04-03T06:18:06.417Z,1.93
2023-04-03T06:20:56.329Z,2.00
2023-04-03T06:23:44.322Z,2.08
2023-04-03T06:26:32.906Z,2.11
2023-04-03T06:29:21.514Z,2.18
2023-04-03T06:32:09.455Z,2.25
2023-04-03T06:34:58.175Z,2.34
2023-04-03T06:37:47.498Z,2.40
2023-04-03T06:40:36.814Z,2.48
2023-04-03T06:43:25.458Z,2.55
2023-04-03T06:46:18.192Z,2.64
2023-04-03T06:49:08.275Z,2.70
2023-04-03T06:51:56.490Z,2.77
2023-04-03T06:54:46.067Z,2.85
2023-04-03T06:57:34.076Z,2.94
2023-04-03T07:00:22.956Z,2.99
2023-04-03T07:03:10.673Z,3.08
2023-04-03T07:05:58.906Z,3.16
2023-04-03T07:08:49.244Z,3.23
2023-04-03T07:11:43.546Z,3.32
2023-04-03T07:14:35.910Z,3.41
2023-04-03T07:17:26.524Z,3.49
2023-04-03T07:20:16.106Z,3.58
2023-04-03T07:23:04.397Z,3.67
2023-04-03T07:25:53.772Z,3.76
2023-04-03T07:28:44.989Z,3.88
2023-04-03T07:31:32.726Z,3.98
2023-04-03T07:34:21.370Z,4.09
2023-04-03T07:37:10.015Z,4.24
2023-04-03T07:39:59.504Z,4.36
2023-04-03T07:42:48.167Z,4.47
2023-04-03T07:45:38.864Z,4.54
2023-04-03T07:48:29.049Z,4.69
2023-04-03T07:51:17.311Z,4.77
2023-04-03T07:54:06.140Z,4.76
2023-04-03T07:56:54.204Z,4.90
2023-04-03T07:59:43.721Z,5.05
2023-04-03T08:02:36.919Z,5.21
2023-04-03T08:05:25.367Z,5.33
2023-04-03T08:08:15.358Z,5.49
2023-04-03T08:11:06.680Z,5.64
2023-04-03T08:13:55.316Z,5.78
2023-04-03T08:16:43.294Z,5.92
2023-04-03T08:19:33.280Z,6.08
2023-04-03T08:22:21.261Z,6.15
2023-04-03T08:25:10.032Z,6.17
2023-04-03T08:27:58.011Z,6.30
2023-04-03T08:30:47.075Z,6.43
2023-04-03T08:33:36.784Z,6.37
2023-04-03T08:36:28.188Z,6.61
2023-04-03T08:39:16.376Z,6.61
2023-04-03T08:42:14.412Z,6.84
2023-04-03T08:45:10.523Z,6.90
2023-04-03T08:48:04.578Z,7.14
2023-04-03T08:50:56.892Z,7.27
2023-04-03T08:53:53.069Z,7.52
2023-04-03T08:56:42.341Z,7.66
2023-04-03T08:59:34.657Z,7.90
2023-04-03T09:02:29.856Z,8.21
2023-04-03T09:05:20.212Z,8.32
2023-04-03T09:08:16.751Z,8.30
2023-04-03T09:11:18.877Z,8.39
2023-04-03T09:14:17.481Z,8.40
2023-04-03T09:17:13.394Z,8.45
2023-04-03T09:20:12.024Z,8.70
2023-04-03T09:23:00.529Z,8.77
2023-04-03T09:25:49.674Z,8.79
2023-04-03T09:28:49.952Z,9.01
2023-04-03T09:31:42.498Z,9.21
2023-04-03T09:34:35.339Z,9.61
2023-04-03T09:37:42.556Z,9.81
2023-04-03T09:40:35.928Z,9.95
2023-04-03T09:43:28.087Z,10.09
2023-04-03T09:46:34.041Z,10.28
2023-04-03T09:49:25.985Z,10.49
2023-04-03T09:52:31.317Z,10.10
2023-04-03T09:55:28.290Z,9.97
2023-04-03T09:58:42.624Z,10.09
2023-04-03T10:01:39.046Z,10.19
2023-04-03T10:04:28.399Z,10.27
2023-04-03T10:07:36.110Z,10.31
2023-04-03T10:10:26.674Z,10.40
2023-04-03T10:13:21.024Z,10.43
2023-04-03T10:16:14.197Z,10.52
2023-04-03T10:19:34.464Z,10.73
2023-04-03T10:22:27.543Z,10.81
2023-04-03T10:25:24.352Z,10.80
2023-04-03T10:28:22.486Z,11.16
2023-04-03T10:31:18.944Z,11.22
2023-04-03T10:34:24.756Z,10.91
2023-04-03T10:37:23.205Z,11.25
2023-04-03T10:40:26.462Z,11.54
2023-04-03T10:43:27.202Z,11.69
2023-04-03T10:46:20.707Z,11.60
2023-04-03T10:49:20.924Z,11.76
2023-04-03T10:52:16.477Z,12.09
2023-04-03T10:55:20.347Z,12.29
2023-04-03T10:58:17.120Z,12.38
2023-04-03T11:01:10.731Z,12.45
2023-04-03T11:04:02.932Z,12.35
2023-04-03T11:06:59.207Z,12.90
2023-04-03T11:09:50.696Z,13.03
2023-04-03T11:12:47.061Z,13.14
2023-04-03T11:15:36.564Z,13.18
2023-04-03T11:18:29.344Z,13.73
2023-04-03T11:21:22.606Z,13.69
2023-04-03T11:24:23.963Z,13.62
2023-04-03T11:27:19.268Z,14.01
2023-04-03T11:30:12.202Z,14.00
2023-04-03T11:33:13.583Z,14.07
2023-04-03T11:36:19.045Z,14.05
2023-04-03T11:39:30.718Z,14.24
2023-04-03T11:42:26.810Z,14.70
2023-04-03T11:45:37.984Z,14.90
2023-04-03T11:48:54.287Z,15.04
2023-04-03T11:51:43.809Z,15.22
2023-04-03T11:54:48.098Z,15.05
2023-04-03T11:58:14.478Z,15.26
2023-04-03T12:01:08.622Z,15.81
2023-04-03T12:04:09.197Z,16.17
2023-04-03T12:07:17.312Z,16.15
2023-04-03T12:10:31.731Z,16.07
2023-04-03T12:13:20.785Z,16.35
2023-04-03T12:16:09.898Z,16.45
2023-04-03T12:19:04.271Z,16.43
2023-04-03T12:22:14.510Z,16.50
2023-04-03T12:25:43.322Z,16.41
2023-04-03T12:28:38.114Z,16.43
2023-04-03T12:31:36.446Z,16.51
2023-04-03T12:34:41.917Z,16.47
2023-04-03T12:37:51.820Z,16.31
2023-04-03T12:40:45.132Z,16.43
2023-04-03T12:43:52.588Z,15.47
2023-04-03T12:46:44.570Z,16.19
2023-04-03T12:49:40.343Z,16.42
2023-04-03T12:52:37.408Z,16.43
2023-04-03T12:55:25.536Z,16.42
2023-04-03T12:58:23.991Z,16.41
2023-04-03T13:01:16.629Z,16.28
2023-04-03T13:04:05.340Z,16.13
2023-04-03T13:06:53.372Z,16.52
2023-04-03T13:09:41.408Z,16.72
2023-04-03T13:12:31.224Z,16.74
2023-04-03T13:15:30.464Z,16.59
2023-04-03T13:18:32.096Z,16.65
2023-04-03T13:21:24.275Z,16.66
2023-04-03T13:24:15.700Z,16.69
2023-04-03T13:27:04.342Z,16.86
2023-04-03T13:29:54.118Z,16.82
2023-04-03T13:32:42.079Z,16.82
2023-04-03T13:35:50.622Z,16.77
2023-04-03T13:38:39.017Z,16.84
2023-04-03T13:41:31.980Z,16.37
2023-04-03T13:44:32.709Z,16.77
2023-04-03T13:47:23.143Z,17.02
2023-04-03T13:50:20.187Z,16.90
2023-04-03T13:53:16.128Z,16.92
2023-04-03T13:56:12.205Z,16.94
2023-04-03T13:59:05.850Z,16.93
2023-04-03T14:01:56.291Z,17.04
2023-04-03T14:04:57.773Z,17.06
2023-04-03T14:07:46.307Z,17.00
2023-04-03T14:10:36.831Z,16.94
2023-04-03T14:13:24.965Z,16.76
2023-04-03T14:16:17.764Z,16.77
2023-04-03T14:19:06.332Z,16.78
2023-04-03T14:21:55.391Z,16.86
2023-04-03T14:24:43.786Z,16.69
2023-04-03T14:27:38.867Z,16.65
2023-04-03T14:30:29.718Z,16.68
2023-04-03T14:33:21.475Z,16.60
2023-04-03T14:36:16.210Z,16.69
2023-04-03T14:39:06.611Z,16.76
2023-04-03T14:41:54.322Z,16.60
2023-04-03T14:44:44.252Z,16.51
2023-04-03T14:47:33.152Z,16.59
2023-04-03T14:50:24.619Z,16.68
2023-04-03T14:53:16.226Z,16.74
2023-04-03T14:56:07.211Z,16.99
2023-04-03T14:58:59.825Z,16.65
2023-04-03T15:01:49.839Z,16.97
2023-04-03T15:04:38.053Z,16.76
2023-04-03T15:07:53.300Z,16.18
2023-04-03T15:10:42.114Z,16.69
2023-04-03T15:13:30.084Z,16.80
2023-04-03T15:16:21.947Z,17.10
2023-04-03T15:19:13.429Z,16.98
2023-04-03T15:22:02.208Z,16.86
2023-04-03T15:24:52.138Z,16.60
2023-04-03T15:27:42.015Z,16.62
2023-04-03T15:30:29.886Z,16.84
2023-04-03T15:33:18.034Z,16.88
2023-04-03T15:36:17.177Z,17.00
2023-04-03T15:39:17.269Z,16.97
2023-04-03T15:42:07.328Z,16.46
2023-04-03T15:44:55.336Z,16.51
2023-04-03T15:47:44.977Z,16.49
2023-04-03T15:50:33.345Z,16.39
2023-04-03T15:53:23.145Z,16.44
2023-04-03T15:56:12.794Z,16.35
2023-04-03T15:59:00.720Z,16.67
2023-04-03T16:01:49.425Z,16.37
2023-04-03T16:04:37.449Z,16.06
2023-04-03T16:07:25.715Z,16.21
2023-04-03T16:10:18.262Z,16.17
2023-04-03T16:13:06.386Z,15.15
2023-04-03T16:15:54.306Z,15.31
2023-04-03T16:18:42.515Z,15.36
2023-04-03T16:21:31.418Z,15.11
2023-04-03T16:24:19.407Z,14.60
2023-04-03T16:27:08.831Z,13.89
2023-04-03T16:29:56.770Z,13.83
2023-04-03T16:32:44.971Z,13.57
2023-04-03T16:35:35.861Z,13.42
2023-04-03T16:38:23.793Z,12.81
2023-04-03T16:41:11.912Z,12.45
2023-04-03T16:44:01.372Z,12.06
2023-04-03T16:46:49.371Z,11.98
2023-04-03T16:49:38.116Z,11.66
2023-04-03T16:52:26.177Z,11.17
2023-04-03T16:55:14.562Z,11.25
2023-04-03T16:58:02.510Z,11.21
2023-04-03T17:00:52.554Z,10.81
2023-04-03T17:03:41.119Z,10.43
2023-04-03T17:06:29.217Z,10.59
2023-04-03T17:09:17.186Z,10.44
2023-04-03T17:12:05.415Z,10.07
2023-04-03T17:14:53.496Z,10.06
2023-04-03T17:17:43.261Z,9.84
2023-04-03T17:20:34.913Z,9.62
2023-04-03T17:23:23.043Z,9.16
2023-04-03T17:26:11.525Z,9.26
2023-04-03T17:28:59.558Z,8.77
2023-04-03T17:31:47.599Z,8.45
2023-04-03T17:34:38.026Z,8.51
2023-04-03T17:37:27.369Z,8.10
2023-04-03T17:40:17.887Z,8.04
2023-04-03T17:43:07.930Z,7.94
2023-04-03T17:46:03.609Z,7.77
2023-04-03T17:48:52.269Z,7.52
2023-04-03T17:51:42.019Z,7.35
2023-04-03T17:54:43.187Z,7.07
2023-04-03T17:57:31.511Z,6.74
2023-04-03T18:00:20.737Z,6.71
2023-04-03T18:03:08.776Z,6.37
2023-04-03T18:05:57.105Z,6.64
2023-04-03T18:08:49.914Z,6.63
2023-04-03T18:11:41.155Z,6.26
2023-04-03T18:14:33.725Z,6.08
2023-04-03T18:17:22.455Z,5.72
2023-04-03T18:20:14.724Z,5.83
2023-04-03T18:23:05.797Z,5.85
2023-04-03T18:25:55.455Z,5.97
2023-04-03T18:28:58.183Z,5.79
2023-04-03T18:31:53.781Z,5.80
2023-04-03T18:34:50.844Z,5.46
2023-04-03T18:38:07.738Z,5.43
2023-04-03T18:44:35.803Z,5.14
2023-04-03T18:47:26.603Z,5.01
2023-04-03T18:50:15.920Z,5.12
2023-04-03T18:53:03.502Z,4.92
2023-04-03T18:55:51.266Z,4.73
2023-04-03T18:58:40.885Z,4.68
2023-04-03T19:01:29.428Z,4.68
2023-04-03T19:04:17.654Z,4.57
2023-04-03T19:07:07.266Z,4.57
2023-04-03T19:09:56.066Z,4.29
2023-04-03T19:12:45.095Z,4.27
2023-04-03T19:15:34.163Z,4.12
2023-04-03T19:18:22.162Z,4.09
2023-04-03T19:21:09.776Z,4.05
2023-04-03T19:23:59.274Z,3.99
2023-04-03T19:26:47.286Z,3.89
2023-04-03T19:29:36.316Z,3.90
2023-04-03T19:32:25.744Z,3.83
2023-04-03T19:35:13.854Z,3.72
2023-04-03T19:38:01.344Z,3.57
2023-04-03T19:40:48.975Z,3.40
2023-04-03T19:43:37.039Z,3.42
2023-04-03T19:46:26.352Z,3.32
2023-04-03T19:49:15.834Z,3.37
2023-04-03T19:52:03.623Z,3.22
2023-04-03T19:54:52.986Z,3.19
2023-04-03T19:57:41.086Z,3.11
2023-04-03T20:00:31.316Z,3.09
2023-04-03T20:03:19.162Z,2.96
2023-04-03T20:06:08.186Z,2.94
2023-04-03T20:08:55.934Z,2.92
2023-04-03T20:11:44.708Z,2.78
2023-04-03T20:14:32.795Z,2.69
2023-04-03T20:17:20.839Z,2.62
2023-04-03T20:20:10.745Z,2.63
2023-04-03T20:23:00.385Z,2.51
2023-04-03T20:25:58.025Z,2.47
2023-04-03T20:28:59.365Z,2.42
2023-04-03T20:31:47.396Z,2.35
2023-04-03T20:34:35.150Z,2.25
2023-04-03T20:37:24.017Z,2.20
2023-04-03T20:40:15.316Z,2.16
2023-04-03T20:43:03.500Z,2.07
2023-04-03T20:45:53.322Z,2.05
2023-04-03T20:48:41.759Z,2.02
2023-04-03T20:51:29.665Z,1.97
2023-04-03T20:54:17.782Z,1.90
2023-04-03T20:57:07.083Z,1.85
2023-04-03T20:59:55.387Z,1.84
2023-04-03T21:02:43.878Z,1.80
2023-04-03T21:05:34.977Z,1.75
2023-04-03T21:09:19.090Z,1.71
2023-04-03T21:13:03.408Z,1.64
2023-04-03T21:15:52.447Z,1.63
2023-04-03T21:19:15.757Z,1.58
2023-04-03T21:22:03.746Z,1.50
2023-04-03T21:24:51.164Z,1.55
2023-04-03T21:27:38.848Z,1.46
2023-04-03T21:30:27.100Z,1.45
2023-04-03T21:33:15.004Z,1.41
2023-04-03T21:36:03.916Z,1.33
2023-04-03T21:38:51.650Z,1.32
2023-04-03T21:41:39.695Z,1.27
2023-04-03T21:44:28.296Z,1.25
2023-04-03T21:47:16.213Z,1.15
2023-04-03T21:50:04.192Z,1.09
2023-04-03T21:52:56.447Z,1.07
2023-04-03T21:55:53.848Z,1.01
2023-04-03T21:58:41.621Z,1.00
2023-04-03T22:01:30.134Z,1.00
2023-04-03T22:04:18.049Z,0.98
2023-04-03T22:07:05.627Z,0.89
2023-04-03T22:09:56.900Z,0.87
2023-04-03T22:12:44.479Z,0.89
2023-04-03T22:15:36.702Z,0.79
2023-04-03T22:18:24.472Z,0.77
2023-04-03T22:21:12.435Z,0.77
2023-04-03T22:24:00.907Z,0.74
2023-04-03T22:26:50.382Z,0.70
2023-04-03T22:29:38.324Z,0.69
2023-04-03T22:32:26.388Z,0.66
2023-04-03T22:35:14.514Z,0.60
2023-04-03T22:38:02.432Z,0.57
2023-04-03T22:40:58.709Z,0.56
2023-04-03T22:43:48.067Z,0.52
2023-04-03T22:46:36.312Z,0.45
2023-04-03T22:49:25.014Z,0.44
2023-04-03T22:52:12.966Z,0.41
2023-04-03T22:55:09.360Z,0.36
2023-04-03T22:58:06.611Z,0.30
2023-04-03T23:00:56.953Z,0.23
2023-04-03T23:03:45.483Z,0.21
2023-04-03T23:06:33.546Z,0.15
2023-04-03T23:09:22.174Z,0.13
2023-04-03T23:12:10.226Z,0.07
2023-04-03T23:14:57.939Z,0.01
2023-04-03T23:17:50.427Z,-0.04
2023-04-03T23:20:38.952Z,-0.06
2023-04-03T23:23:29.930Z,-0.10
2023-04-03T23:26:18.471Z,-0.15
2023-04-03T23:29:06.580Z,-0.21
2023-04-03T23:31:54.460Z,-0.27
2023-04-03T23:34:43.458Z,-0.29
2023-04-03T23:37:32.067Z,-0.28
2023-04-03T23:40:19.916Z,-0.32
2023-04-03T23:43:07.649Z,-0.42
2023-04-03T23:45:55.916Z,-0.45
2023-04-03T23:48:43.825Z,-0.52
2023-04-03T23:51:33.241Z,-0.56
2023-04-03T23:54:21.332Z,-0.65
2023-04-03T23:57:09.083Z,-0.72
2023-04-03T23:59:57.363Z,-0.77
